sensor_id;sensor_type;location;lat;lon;timestamp;temperature;humidity
10536;DHT22;5316;49.538;8.352;2022-09-03T00:02:13;18.90;82.10
10536;DHT22;5316;49.538;8.352;2022-09-03T00:04:48;19.00;81.80
10536;DHT22;5316;49.538;8.352;2022-09-03T00:07:21;19.00;81.30
10536;DHT22;5316;49.538;8.352;2022-09-03T00:09:56;19.00;81.60
10536;DHT22;5316;49.538;8.352;2022-09-03T00:12:27;19.00;81.80
10536;DHT22;5316;49.538;8.352;2022-09-03T00:15:02;19.00;82.20
10536;DHT22;5316;49.538;8.352;2022-09-03T00:17:33;18.90;82.30
10536;DHT22;5316;49.538;8.352;2022-09-03T00:20:05;19.00;82.10
10536;DHT22;5316;49.538;8.352;2022-09-03T00:22:34;18.80;81.60
10536;DHT22;5316;49.538;8.352;2022-09-03T00:25:06;18.80;81.80
10536;DHT22;5316;49.538;8.352;2022-09-03T00:27:39;18.80;82.30
10536;DHT22;5316;49.538;8.352;2022-09-03T00:30:11;18.80;82.50
10536;DHT22;5316;49.538;8.352;2022-09-03T00:32:41;18.80;82.90
10536;DHT22;5316;49.538;8.352;2022-09-03T00:35:16;18.70;83.30
10536;DHT22;5316;49.538;8.352;2022-09-03T00:37:45;18.70;83.60
10536;DHT22;5316;49.538;8.352;2022-09-03T00:40:21;18.70;83.80
10536;DHT22;5316;49.538;8.352;2022-09-03T00:42:57;18.70;84.20
10536;DHT22;5316;49.538;8.352;2022-09-03T00:45:35;18.70;84.60
10536;DHT22;5316;49.538;8.352;2022-09-03T00:48:11;18.70;84.80
10536;DHT22;5316;49.538;8.352;2022-09-03T00:50:51;18.70;85.30
10536;DHT22;5316;49.538;8.352;2022-09-03T00:53:29;18.60;85.40
10536;DHT22;5316;49.538;8.352;2022-09-03T00:56:03;18.60;85.30
10536;DHT22;5316;49.538;8.352;2022-09-03T00:58:43;18.60;85.80
10536;DHT22;5316;49.538;8.352;2022-09-03T01:01:19;18.50;86.70
10536;DHT22;5316;49.538;8.352;2022-09-03T01:03:56;18.50;87.50
10536;DHT22;5316;49.538;8.352;2022-09-03T01:06:38;18.50;88.10
10536;DHT22;5316;49.538;8.352;2022-09-03T01:09:15;18.40;88.50
10536;DHT22;5316;49.538;8.352;2022-09-03T01:11:51;18.40;89.10
10536;DHT22;5316;49.538;8.352;2022-09-03T01:14:31;18.30;89.90
10536;DHT22;5316;49.538;8.352;2022-09-03T01:17:07;18.30;90.10
10536;DHT22;5316;49.538;8.352;2022-09-03T01:19:54;18.30;90.30
10536;DHT22;5316;49.538;8.352;2022-09-03T01:25:37;18.30;90.40
10536;DHT22;5316;49.538;8.352;2022-09-03T01:28:18;18.30;90.40
10536;DHT22;5316;49.538;8.352;2022-09-03T01:30:52;18.40;90.60
10536;DHT22;5316;49.538;8.352;2022-09-03T01:33:28;18.40;90.80
10536;DHT22;5316;49.538;8.352;2022-09-03T01:36:03;18.40;90.90
10536;DHT22;5316;49.538;8.352;2022-09-03T01:38:40;18.40;91.00
10536;DHT22;5316;49.538;8.352;2022-09-03T01:41:16;18.30;91.40
10536;DHT22;5316;49.538;8.352;2022-09-03T01:44:13;18.30;91.60
10536;DHT22;5316;49.538;8.352;2022-09-03T01:46:44;18.30;91.50
10536;DHT22;5316;49.538;8.352;2022-09-03T01:49:19;18.30;91.70
10536;DHT22;5316;49.538;8.352;2022-09-03T01:51:54;18.30;91.60
10536;DHT22;5316;49.538;8.352;2022-09-03T01:54:42;18.30;91.50
10536;DHT22;5316;49.538;8.352;2022-09-03T01:57:37;18.40;91.80
10536;DHT22;5316;49.538;8.352;2022-09-03T02:00:08;18.40;91.30
10536;DHT22;5316;49.538;8.352;2022-09-03T02:02:38;18.50;91.30
10536;DHT22;5316;49.538;8.352;2022-09-03T02:05:10;18.40;91.30
10536;DHT22;5316;49.538;8.352;2022-09-03T02:07:40;18.40;91.40
10536;DHT22;5316;49.538;8.352;2022-09-03T02:10:09;18.40;91.60
10536;DHT22;5316;49.538;8.352;2022-09-03T02:12:37;18.40;91.60
10536;DHT22;5316;49.538;8.352;2022-09-03T02:15:12;18.40;91.70
10536;DHT22;5316;49.538;8.352;2022-09-03T02:17:40;18.40;91.70
10536;DHT22;5316;49.538;8.352;2022-09-03T02:20:11;18.40;91.80
10536;DHT22;5316;49.538;8.352;2022-09-03T02:22:39;18.50;91.70
10536;DHT22;5316;49.538;8.352;2022-09-03T02:25:08;18.50;91.80
10536;DHT22;5316;49.538;8.352;2022-09-03T02:27:36;18.50;92.00
10536;DHT22;5316;49.538;8.352;2022-09-03T02:30:03;18.50;92.20
10536;DHT22;5316;49.538;8.352;2022-09-03T02:32:32;18.40;92.20
10536;DHT22;5316;49.538;8.352;2022-09-03T02:34:58;18.40;92.30
10536;DHT22;5316;49.538;8.352;2022-09-03T02:37:25;18.40;92.70
10536;DHT22;5316;49.538;8.352;2022-09-03T02:39:52;18.40;92.90
10536;DHT22;5316;49.538;8.352;2022-09-03T02:42:20;18.30;92.90
10536;DHT22;5316;49.538;8.352;2022-09-03T02:44:49;18.30;93.20
10536;DHT22;5316;49.538;8.352;2022-09-03T02:47:18;18.30;93.30
10536;DHT22;5316;49.538;8.352;2022-09-03T02:49:47;18.30;93.50
10536;DHT22;5316;49.538;8.352;2022-09-03T02:52:14;18.30;93.50
10536;DHT22;5316;49.538;8.352;2022-09-03T02:54:42;18.30;93.40
10536;DHT22;5316;49.538;8.352;2022-09-03T02:57:11;18.20;93.30
10536;DHT22;5316;49.538;8.352;2022-09-03T02:59:38;18.30;93.60
10536;DHT22;5316;49.538;8.352;2022-09-03T03:02:06;18.30;93.60
10536;DHT22;5316;49.538;8.352;2022-09-03T03:04:33;18.30;93.60
10536;DHT22;5316;49.538;8.352;2022-09-03T03:07:01;18.30;93.70
10536;DHT22;5316;49.538;8.352;2022-09-03T03:09:29;18.30;93.90
10536;DHT22;5316;49.538;8.352;2022-09-03T03:11:59;18.30;94.20
10536;DHT22;5316;49.538;8.352;2022-09-03T03:14:26;18.20;94.50
10536;DHT22;5316;49.538;8.352;2022-09-03T03:16:54;18.20;94.70
10536;DHT22;5316;49.538;8.352;2022-09-03T03:19:21;18.20;95.00
10536;DHT22;5316;49.538;8.352;2022-09-03T03:21:49;18.10;95.20
10536;DHT22;5316;49.538;8.352;2022-09-03T03:24:17;18.00;95.50
10536;DHT22;5316;49.538;8.352;2022-09-03T03:26:44;18.00;95.70
10536;DHT22;5316;49.538;8.352;2022-09-03T03:29:14;18.00;96.10
10536;DHT22;5316;49.538;8.352;2022-09-03T03:31:43;18.00;96.20
10536;DHT22;5316;49.538;8.352;2022-09-03T03:34:10;18.00;96.20
10536;DHT22;5316;49.538;8.352;2022-09-03T03:36:37;17.90;96.30
10536;DHT22;5316;49.538;8.352;2022-09-03T03:39:07;17.90;96.30
10536;DHT22;5316;49.538;8.352;2022-09-03T03:41:35;17.80;96.70
10536;DHT22;5316;49.538;8.352;2022-09-03T03:44:06;17.80;97.10
10536;DHT22;5316;49.538;8.352;2022-09-03T03:46:35;17.70;97.30
10536;DHT22;5316;49.538;8.352;2022-09-03T03:49:03;17.70;97.60
10536;DHT22;5316;49.538;8.352;2022-09-03T03:51:32;17.70;97.70
10536;DHT22;5316;49.538;8.352;2022-09-03T03:54:00;17.70;97.90
10536;DHT22;5316;49.538;8.352;2022-09-03T03:56:27;17.80;97.80
10536;DHT22;5316;49.538;8.352;2022-09-03T03:58:58;17.80;97.80
10536;DHT22;5316;49.538;8.352;2022-09-03T04:01:26;17.80;98.00
10536;DHT22;5316;49.538;8.352;2022-09-03T04:03:54;17.80;97.90
10536;DHT22;5316;49.538;8.352;2022-09-03T04:06:22;17.90;97.90
10536;DHT22;5316;49.538;8.352;2022-09-03T04:08:52;17.90;97.80
10536;DHT22;5316;49.538;8.352;2022-09-03T04:11:21;17.80;97.60
10536;DHT22;5316;49.538;8.352;2022-09-03T04:13:49;17.80;97.70
10536;DHT22;5316;49.538;8.352;2022-09-03T04:16:19;17.90;97.50
10536;DHT22;5316;49.538;8.352;2022-09-03T04:18:47;17.90;97.40
10536;DHT22;5316;49.538;8.352;2022-09-03T04:21:16;17.90;98.00
10536;DHT22;5316;49.538;8.352;2022-09-03T04:23:45;17.90;98.00
10536;DHT22;5316;49.538;8.352;2022-09-03T04:26:20;17.90;97.70
10536;DHT22;5316;49.538;8.352;2022-09-03T04:28:47;18.00;97.50
10536;DHT22;5316;49.538;8.352;2022-09-03T04:31:20;18.00;97.90
10536;DHT22;5316;49.538;8.352;2022-09-03T04:33:47;18.00;97.60
10536;DHT22;5316;49.538;8.352;2022-09-03T04:36:15;18.00;97.10
10536;DHT22;5316;49.538;8.352;2022-09-03T04:38:43;18.10;97.40
10536;DHT22;5316;49.538;8.352;2022-09-03T04:41:17;18.10;97.50
10536;DHT22;5316;49.538;8.352;2022-09-03T04:43:44;18.20;96.70
10536;DHT22;5316;49.538;8.352;2022-09-03T04:46:14;18.10;97.10
10536;DHT22;5316;49.538;8.352;2022-09-03T04:48:43;18.10;97.50
10536;DHT22;5316;49.538;8.352;2022-09-03T04:51:11;18.10;97.60
10536;DHT22;5316;49.538;8.352;2022-09-03T04:53:45;18.10;97.80
10536;DHT22;5316;49.538;8.352;2022-09-03T04:56:13;18.10;97.70
10536;DHT22;5316;49.538;8.352;2022-09-03T04:58:53;18.10;98.50
10536;DHT22;5316;49.538;8.352;2022-09-03T05:01:23;18.20;99.90
10536;DHT22;5316;49.538;8.352;2022-09-03T05:03:52;18.20;99.90
10536;DHT22;5316;49.538;8.352;2022-09-03T05:06:19;18.30;99.90
10536;DHT22;5316;49.538;8.352;2022-09-03T05:08:47;18.30;99.90
10536;DHT22;5316;49.538;8.352;2022-09-03T05:11:19;18.30;99.90
10536;DHT22;5316;49.538;8.352;2022-09-03T05:13:48;18.30;99.90
10536;DHT22;5316;49.538;8.352;2022-09-03T05:16:17;18.30;99.90
10536;DHT22;5316;49.538;8.352;2022-09-03T05:18:44;18.30;99.90
10536;DHT22;5316;49.538;8.352;2022-09-03T05:21:15;18.20;99.90
10536;DHT22;5316;49.538;8.352;2022-09-03T05:23:45;18.10;99.90
10536;DHT22;5316;49.538;8.352;2022-09-03T05:26:14;17.90;99.90
10536;DHT22;5316;49.538;8.352;2022-09-03T05:28:42;17.70;99.90
10536;DHT22;5316;49.538;8.352;2022-09-03T05:31:11;17.60;99.90
10536;DHT22;5316;49.538;8.352;2022-09-03T05:33:40;17.50;99.90
10536;DHT22;5316;49.538;8.352;2022-09-03T05:36:09;17.30;99.90
10536;DHT22;5316;49.538;8.352;2022-09-03T05:38:38;17.20;99.90
10536;DHT22;5316;49.538;8.352;2022-09-03T05:41:06;17.20;99.90
10536;DHT22;5316;49.538;8.352;2022-09-03T05:43:37;17.30;99.90
10536;DHT22;5316;49.538;8.352;2022-09-03T05:46:05;17.40;99.90
10536;DHT22;5316;49.538;8.352;2022-09-03T05:48:43;17.50;99.90
10536;DHT22;5316;49.538;8.352;2022-09-03T05:51:12;17.60;99.90
10536;DHT22;5316;49.538;8.352;2022-09-03T05:53:43;17.70;99.90
10536;DHT22;5316;49.538;8.352;2022-09-03T05:56:12;17.80;99.90
10536;DHT22;5316;49.538;8.352;2022-09-03T05:58:42;17.80;99.90
10536;DHT22;5316;49.538;8.352;2022-09-03T06:01:11;17.90;99.90
10536;DHT22;5316;49.538;8.352;2022-09-03T06:03:39;17.90;99.90
10536;DHT22;5316;49.538;8.352;2022-09-03T06:06:07;18.00;99.90
10536;DHT22;5316;49.538;8.352;2022-09-03T06:08:35;18.10;99.90
10536;DHT22;5316;49.538;8.352;2022-09-03T06:11:05;18.20;99.90
10536;DHT22;5316;49.538;8.352;2022-09-03T06:13:33;18.20;99.90
10536;DHT22;5316;49.538;8.352;2022-09-03T06:16:03;18.30;99.90
10536;DHT22;5316;49.538;8.352;2022-09-03T06:18:33;18.30;99.90
10536;DHT22;5316;49.538;8.352;2022-09-03T06:21:02;18.20;99.90
10536;DHT22;5316;49.538;8.352;2022-09-03T06:23:30;18.20;99.90
10536;DHT22;5316;49.538;8.352;2022-09-03T06:26:06;18.20;99.90
10536;DHT22;5316;49.538;8.352;2022-09-03T06:28:35;18.20;99.90
10536;DHT22;5316;49.538;8.352;2022-09-03T06:31:04;18.20;99.90
10536;DHT22;5316;49.538;8.352;2022-09-03T06:33:34;18.10;99.90
10536;DHT22;5316;49.538;8.352;2022-09-03T06:36:05;18.00;99.90
10536;DHT22;5316;49.538;8.352;2022-09-03T06:38:34;18.10;99.90
10536;DHT22;5316;49.538;8.352;2022-09-03T06:41:03;18.10;99.90
10536;DHT22;5316;49.538;8.352;2022-09-03T06:43:33;18.10;99.90
10536;DHT22;5316;49.538;8.352;2022-09-03T06:46:03;18.20;99.90
10536;DHT22;5316;49.538;8.352;2022-09-03T06:48:32;18.20;99.90
10536;DHT22;5316;49.538;8.352;2022-09-03T06:51:02;18.30;99.90
10536;DHT22;5316;49.538;8.352;2022-09-03T06:53:30;18.40;99.90
10536;DHT22;5316;49.538;8.352;2022-09-03T06:55:59;18.40;99.90
10536;DHT22;5316;49.538;8.352;2022-09-03T06:58:28;18.50;99.90
10536;DHT22;5316;49.538;8.352;2022-09-03T07:01:04;18.50;99.90
10536;DHT22;5316;49.538;8.352;2022-09-03T07:03:32;18.50;99.90
10536;DHT22;5316;49.538;8.352;2022-09-03T07:06:00;18.50;99.90
10536;DHT22;5316;49.538;8.352;2022-09-03T07:08:33;18.60;99.90
10536;DHT22;5316;49.538;8.352;2022-09-03T07:11:00;18.70;99.90
10536;DHT22;5316;49.538;8.352;2022-09-03T07:13:31;18.70;99.90
10536;DHT22;5316;49.538;8.352;2022-09-03T07:15:59;18.70;99.90
10536;DHT22;5316;49.538;8.352;2022-09-03T07:18:27;18.80;99.90
10536;DHT22;5316;49.538;8.352;2022-09-03T07:20:59;18.80;99.90
10536;DHT22;5316;49.538;8.352;2022-09-03T07:23:27;18.80;99.90
10536;DHT22;5316;49.538;8.352;2022-09-03T07:25:55;18.80;99.90
10536;DHT22;5316;49.538;8.352;2022-09-03T07:28:23;18.80;99.90
10536;DHT22;5316;49.538;8.352;2022-09-03T07:30:51;18.70;99.90
10536;DHT22;5316;49.538;8.352;2022-09-03T07:33:19;18.70;99.90
10536;DHT22;5316;49.538;8.352;2022-09-03T07:35:47;18.60;99.90
10536;DHT22;5316;49.538;8.352;2022-09-03T07:38:17;18.60;99.90
10536;DHT22;5316;49.538;8.352;2022-09-03T07:40:45;18.60;99.90
10536;DHT22;5316;49.538;8.352;2022-09-03T07:43:15;18.50;99.90
10536;DHT22;5316;49.538;8.352;2022-09-03T07:45:55;18.50;99.90
10536;DHT22;5316;49.538;8.352;2022-09-03T07:48:29;18.70;99.90
10536;DHT22;5316;49.538;8.352;2022-09-03T07:50:58;18.80;99.90
10536;DHT22;5316;49.538;8.352;2022-09-03T07:53:27;18.90;99.90
10536;DHT22;5316;49.538;8.352;2022-09-03T07:56:00;19.00;99.90
10536;DHT22;5316;49.538;8.352;2022-09-03T07:58:28;19.10;99.90
10536;DHT22;5316;49.538;8.352;2022-09-03T08:00:56;19.20;99.90
10536;DHT22;5316;49.538;8.352;2022-09-03T08:03:23;19.20;99.90
10536;DHT22;5316;49.538;8.352;2022-09-03T08:05:50;19.30;99.90
10536;DHT22;5316;49.538;8.352;2022-09-03T08:08:19;19.40;99.90
10536;DHT22;5316;49.538;8.352;2022-09-03T08:10:46;19.40;99.90
10536;DHT22;5316;49.538;8.352;2022-09-03T08:13:13;19.40;99.90
10536;DHT22;5316;49.538;8.352;2022-09-03T08:15:40;19.40;99.90
10536;DHT22;5316;49.538;8.352;2022-09-03T08:18:08;19.40;99.90
10536;DHT22;5316;49.538;8.352;2022-09-03T08:20:38;19.40;99.90
10536;DHT22;5316;49.538;8.352;2022-09-03T08:23:07;19.50;99.90
10536;DHT22;5316;49.538;8.352;2022-09-03T08:25:59;19.50;99.90
10536;DHT22;5316;49.538;8.352;2022-09-03T08:28:38;19.40;99.90
10536;DHT22;5316;49.538;8.352;2022-09-03T08:31:11;19.30;99.90
10536;DHT22;5316;49.538;8.352;2022-09-03T08:33:43;19.10;99.90
10536;DHT22;5316;49.538;8.352;2022-09-03T08:36:13;18.80;99.90
10536;DHT22;5316;49.538;8.352;2022-09-03T08:38:44;18.50;99.90
10536;DHT22;5316;49.538;8.352;2022-09-03T08:41:22;18.30;99.90
10536;DHT22;5316;49.538;8.352;2022-09-03T08:44:13;18.30;99.90
10536;DHT22;5316;49.538;8.352;2022-09-03T08:46:53;18.30;99.90
10536;DHT22;5316;49.538;8.352;2022-09-03T08:49:26;18.30;99.90
10536;DHT22;5316;49.538;8.352;2022-09-03T08:52:02;18.20;99.90
10536;DHT22;5316;49.538;8.352;2022-09-03T08:54:57;18.20;99.90
10536;DHT22;5316;49.538;8.352;2022-09-03T08:57:39;18.20;99.90
10536;DHT22;5316;49.538;8.352;2022-09-03T09:00:09;18.10;99.90
10536;DHT22;5316;49.538;8.352;2022-09-03T09:02:45;18.20;99.90
10536;DHT22;5316;49.538;8.352;2022-09-03T09:05:21;18.20;99.90
10536;DHT22;5316;49.538;8.352;2022-09-03T09:08:00;18.30;99.90
10536;DHT22;5316;49.538;8.352;2022-09-03T09:10:36;18.30;99.90
10536;DHT22;5316;49.538;8.352;2022-09-03T09:13:25;18.50;99.90
10536;DHT22;5316;49.538;8.352;2022-09-03T09:16:04;18.50;99.90
10536;DHT22;5316;49.538;8.352;2022-09-03T09:18:46;18.70;99.90
10536;DHT22;5316;49.538;8.352;2022-09-03T09:21:21;18.70;99.90
10536;DHT22;5316;49.538;8.352;2022-09-03T09:23:58;18.80;99.90
10536;DHT22;5316;49.538;8.352;2022-09-03T09:26:28;18.90;99.90
10536;DHT22;5316;49.538;8.352;2022-09-03T09:29:01;18.90;99.90
10536;DHT22;5316;49.538;8.352;2022-09-03T09:31:37;19.00;99.90
10536;DHT22;5316;49.538;8.352;2022-09-03T09:34:05;19.10;99.90
10536;DHT22;5316;49.538;8.352;2022-09-03T09:36:38;19.10;99.90
10536;DHT22;5316;49.538;8.352;2022-09-03T09:39:09;19.20;99.90
10536;DHT22;5316;49.538;8.352;2022-09-03T09:41:36;19.20;99.90
10536;DHT22;5316;49.538;8.352;2022-09-03T09:44:07;19.20;99.90
10536;DHT22;5316;49.538;8.352;2022-09-03T09:46:37;19.20;99.90
10536;DHT22;5316;49.538;8.352;2022-09-03T09:49:23;19.40;99.90
10536;DHT22;5316;49.538;8.352;2022-09-03T09:52:00;19.60;99.90
10536;DHT22;5316;49.538;8.352;2022-09-03T09:54:28;19.80;99.90
10536;DHT22;5316;49.538;8.352;2022-09-03T09:57:01;19.90;99.90
10536;DHT22;5316;49.538;8.352;2022-09-03T09:59:31;20.10;99.90
10536;DHT22;5316;49.538;8.352;2022-09-03T10:02:11;20.30;99.90
10536;DHT22;5316;49.538;8.352;2022-09-03T10:04:39;20.40;99.90
10536;DHT22;5316;49.538;8.352;2022-09-03T10:07:21;20.40;99.90
10536;DHT22;5316;49.538;8.352;2022-09-03T10:10:05;20.40;99.90
10536;DHT22;5316;49.538;8.352;2022-09-03T10:12:37;20.40;99.90
10536;DHT22;5316;49.538;8.352;2022-09-03T10:15:21;20.50;99.90
10536;DHT22;5316;49.538;8.352;2022-09-03T10:17:58;20.50;99.90
10536;DHT22;5316;49.538;8.352;2022-09-03T10:20:33;20.60;99.90
10536;DHT22;5316;49.538;8.352;2022-09-03T10:23:12;20.70;99.90
10536;DHT22;5316;49.538;8.352;2022-09-03T10:25:50;20.80;99.90
10536;DHT22;5316;49.538;8.352;2022-09-03T10:28:27;21.00;99.90
10536;DHT22;5316;49.538;8.352;2022-09-03T10:31:30;21.10;99.90
10536;DHT22;5316;49.538;8.352;2022-09-03T10:34:11;21.30;99.90
10536;DHT22;5316;49.538;8.352;2022-09-03T10:36:48;21.50;99.90
10536;DHT22;5316;49.538;8.352;2022-09-03T10:39:23;21.50;99.90
10536;DHT22;5316;49.538;8.352;2022-09-03T10:42:02;21.60;99.90
10536;DHT22;5316;49.538;8.352;2022-09-03T10:44:47;21.80;99.90
10536;DHT22;5316;49.538;8.352;2022-09-03T10:47:31;22.00;99.90
10536;DHT22;5316;49.538;8.352;2022-09-03T10:50:26;22.20;99.90
10536;DHT22;5316;49.538;8.352;2022-09-03T10:53:06;22.40;99.90
10536;DHT22;5316;49.538;8.352;2022-09-03T10:55:51;22.50;99.90
10536;DHT22;5316;49.538;8.352;2022-09-03T10:58:34;22.50;99.90
10536;DHT22;5316;49.538;8.352;2022-09-03T11:01:11;22.60;99.90
10536;DHT22;5316;49.538;8.352;2022-09-03T11:03:47;22.60;99.90
10536;DHT22;5316;49.538;8.352;2022-09-03T11:06:20;22.70;99.90
10536;DHT22;5316;49.538;8.352;2022-09-03T11:08:53;22.80;99.90
10536;DHT22;5316;49.538;8.352;2022-09-03T11:11:30;22.90;99.90
10536;DHT22;5316;49.538;8.352;2022-09-03T11:14:02;23.00;99.90
10536;DHT22;5316;49.538;8.352;2022-09-03T11:16:36;23.10;99.90
10536;DHT22;5316;49.538;8.352;2022-09-03T11:19:09;23.30;99.90
10536;DHT22;5316;49.538;8.352;2022-09-03T11:21:38;23.40;99.90
10536;DHT22;5316;49.538;8.352;2022-09-03T11:24:11;23.30;99.90
10536;DHT22;5316;49.538;8.352;2022-09-03T11:26:41;23.30;99.90
10536;DHT22;5316;49.538;8.352;2022-09-03T11:29:14;23.40;99.90
10536;DHT22;5316;49.538;8.352;2022-09-03T11:31:55;23.40;99.90
10536;DHT22;5316;49.538;8.352;2022-09-03T11:34:47;23.50;99.90
10536;DHT22;5316;49.538;8.352;2022-09-03T11:37:21;23.40;99.90
10536;DHT22;5316;49.538;8.352;2022-09-03T11:40:05;23.40;99.90
10536;DHT22;5316;49.538;8.352;2022-09-03T11:42:35;23.30;99.90
10536;DHT22;5316;49.538;8.352;2022-09-03T11:45:33;23.40;99.90
10536;DHT22;5316;49.538;8.352;2022-09-03T11:48:01;23.50;99.90
10536;DHT22;5316;49.538;8.352;2022-09-03T11:50:31;23.60;99.90
10536;DHT22;5316;49.538;8.352;2022-09-03T11:53:09;23.60;99.90
10536;DHT22;5316;49.538;8.352;2022-09-03T11:55:51;23.60;99.90
10536;DHT22;5316;49.538;8.352;2022-09-03T11:58:24;23.60;99.90
10536;DHT22;5316;49.538;8.352;2022-09-03T12:00:52;23.70;99.90
10536;DHT22;5316;49.538;8.352;2022-09-03T12:03:34;23.70;99.90
10536;DHT22;5316;49.538;8.352;2022-09-03T12:06:41;23.70;99.90
10536;DHT22;5316;49.538;8.352;2022-09-03T12:09:33;23.70;99.90
10536;DHT22;5316;49.538;8.352;2022-09-03T12:12:39;23.80;99.90
10536;DHT22;5316;49.538;8.352;2022-09-03T12:15:20;24.00;99.90
10536;DHT22;5316;49.538;8.352;2022-09-03T12:17:57;24.00;99.90
10536;DHT22;5316;49.538;8.352;2022-09-03T12:20:42;24.00;99.90
10536;DHT22;5316;49.538;8.352;2022-09-03T12:23:12;24.10;99.90
10536;DHT22;5316;49.538;8.352;2022-09-03T12:25:45;24.40;99.90
10536;DHT22;5316;49.538;8.352;2022-09-03T12:28:17;24.70;99.90
10536;DHT22;5316;49.538;8.352;2022-09-03T12:30:48;24.80;99.90
10536;DHT22;5316;49.538;8.352;2022-09-03T12:33:20;24.80;99.90
10536;DHT22;5316;49.538;8.352;2022-09-03T12:35:57;24.70;99.90
10536;DHT22;5316;49.538;8.352;2022-09-03T12:38:28;24.60;99.90
10536;DHT22;5316;49.538;8.352;2022-09-03T12:40:57;24.70;99.90
10536;DHT22;5316;49.538;8.352;2022-09-03T12:43:27;24.60;99.90
10536;DHT22;5316;49.538;8.352;2022-09-03T12:45:55;24.70;99.90
10536;DHT22;5316;49.538;8.352;2022-09-03T12:48:28;24.60;99.90
10536;DHT22;5316;49.538;8.352;2022-09-03T12:51:02;24.70;99.90
10536;DHT22;5316;49.538;8.352;2022-09-03T12:53:33;24.60;99.90
10536;DHT22;5316;49.538;8.352;2022-09-03T12:56:06;24.60;99.90
10536;DHT22;5316;49.538;8.352;2022-09-03T12:58:47;24.70;99.90
10536;DHT22;5316;49.538;8.352;2022-09-03T13:01:27;24.50;99.90
10536;DHT22;5316;49.538;8.352;2022-09-03T13:04:09;24.60;99.90
10536;DHT22;5316;49.538;8.352;2022-09-03T13:06:47;24.70;99.90
10536;DHT22;5316;49.538;8.352;2022-09-03T13:09:19;24.80;99.90
10536;DHT22;5316;49.538;8.352;2022-09-03T13:11:51;24.90;99.90
10536;DHT22;5316;49.538;8.352;2022-09-03T13:14:28;25.00;99.90
10536;DHT22;5316;49.538;8.352;2022-09-03T13:17:09;25.00;99.90
10536;DHT22;5316;49.538;8.352;2022-09-03T13:19:47;25.10;99.90
10536;DHT22;5316;49.538;8.352;2022-09-03T13:22:24;25.20;99.90
10536;DHT22;5316;49.538;8.352;2022-09-03T13:25:11;25.60;99.90
10536;DHT22;5316;49.538;8.352;2022-09-03T13:27:50;26.10;99.90
10536;DHT22;5316;49.538;8.352;2022-09-03T13:30:21;26.60;99.90
10536;DHT22;5316;49.538;8.352;2022-09-03T13:32:56;27.10;99.90
10536;DHT22;5316;49.538;8.352;2022-09-03T13:35:33;27.40;99.40
10536;DHT22;5316;49.538;8.352;2022-09-03T13:38:07;27.80;98.20
10536;DHT22;5316;49.538;8.352;2022-09-03T13:40:43;27.50;96.50
10536;DHT22;5316;49.538;8.352;2022-09-03T13:43:23;27.40;97.30
10536;DHT22;5316;49.538;8.352;2022-09-03T13:45:56;27.40;97.80
10536;DHT22;5316;49.538;8.352;2022-09-03T13:48:29;27.50;97.50
10536;DHT22;5316;49.538;8.352;2022-09-03T13:51:20;27.60;97.10
10536;DHT22;5316;49.538;8.352;2022-09-03T13:53:58;27.40;98.10
10536;DHT22;5316;49.538;8.352;2022-09-03T13:56:37;27.10;99.50
10536;DHT22;5316;49.538;8.352;2022-09-03T13:59:15;26.70;99.90
10536;DHT22;5316;49.538;8.352;2022-09-03T14:01:59;26.30;99.90
10536;DHT22;5316;49.538;8.352;2022-09-03T14:04:42;25.90;99.90
10536;DHT22;5316;49.538;8.352;2022-09-03T14:07:16;25.50;99.90
10536;DHT22;5316;49.538;8.352;2022-09-03T14:10:01;25.20;99.90
10536;DHT22;5316;49.538;8.352;2022-09-03T14:12:41;24.90;99.90
10536;DHT22;5316;49.538;8.352;2022-09-03T14:15:21;24.70;99.90
10536;DHT22;5316;49.538;8.352;2022-09-03T14:17:56;24.60;99.90
10536;DHT22;5316;49.538;8.352;2022-09-03T14:20:44;24.50;99.90
10536;DHT22;5316;49.538;8.352;2022-09-03T14:23:27;24.40;99.90
10536;DHT22;5316;49.538;8.352;2022-09-03T14:26:06;24.40;99.90
10536;DHT22;5316;49.538;8.352;2022-09-03T14:28:46;24.30;99.90
10536;DHT22;5316;49.538;8.352;2022-09-03T14:32:06;24.20;99.90
10536;DHT22;5316;49.538;8.352;2022-09-03T14:34:58;24.10;99.90
10536;DHT22;5316;49.538;8.352;2022-09-03T14:40:48;24.40;99.90
10536;DHT22;5316;49.538;8.352;2022-09-03T14:55:34;24.60;99.90
10536;DHT22;5316;49.538;8.352;2022-09-03T15:02:04;24.10;99.90
10536;DHT22;5316;49.538;8.352;2022-09-03T15:25:18;23.50;99.90
10536;DHT22;5316;49.538;8.352;2022-09-03T15:31:49;22.90;99.90
10536;DHT22;5316;49.538;8.352;2022-09-03T15:38:42;22.60;99.90
10536;DHT22;5316;49.538;8.352;2022-09-03T15:41:49;22.50;99.90
10536;DHT22;5316;49.538;8.352;2022-09-03T15:47:47;22.40;99.90
10536;DHT22;5316;49.538;8.352;2022-09-03T16:03:13;22.10;99.90
10536;DHT22;5316;49.538;8.352;2022-09-03T17:29:05;20.70;99.90
10536;DHT22;5316;49.538;8.352;2022-09-03T17:31:48;21.00;99.90
10536;DHT22;5316;49.538;8.352;2022-09-03T17:34:54;21.10;99.90
10536;DHT22;5316;49.538;8.352;2022-09-03T17:37:42;21.20;99.90
10536;DHT22;5316;49.538;8.352;2022-09-03T17:40:38;21.30;99.90
10536;DHT22;5316;49.538;8.352;2022-09-03T17:46:30;21.30;99.90
10536;DHT22;5316;49.538;8.352;2022-09-03T17:49:08;21.20;99.90
10536;DHT22;5316;49.538;8.352;2022-09-03T17:52:02;21.10;99.90
10536;DHT22;5316;49.538;8.352;2022-09-03T17:57:23;20.80;99.90
10536;DHT22;5316;49.538;8.352;2022-09-03T18:03:03;20.50;99.90
10536;DHT22;5316;49.538;8.352;2022-09-03T18:05:56;20.40;99.90
10536;DHT22;5316;49.538;8.352;2022-09-03T18:55:18;19.30;99.90
10536;DHT22;5316;49.538;8.352;2022-09-03T19:01:00;19.30;99.90
10536;DHT22;5316;49.538;8.352;2022-09-03T19:03:59;19.30;99.90
10536;DHT22;5316;49.538;8.352;2022-09-03T19:07:01;19.20;99.90
10536;DHT22;5316;49.538;8.352;2022-09-03T19:09:57;19.10;99.90
10536;DHT22;5316;49.538;8.352;2022-09-03T19:13:07;19.10;99.90
10536;DHT22;5316;49.538;8.352;2022-09-03T19:16:01;19.00;99.90
10536;DHT22;5316;49.538;8.352;2022-09-03T19:19:01;19.00;99.90
10536;DHT22;5316;49.538;8.352;2022-09-03T19:21:56;19.00;99.90
10536;DHT22;5316;49.538;8.352;2022-09-03T19:24:43;19.00;99.90
10536;DHT22;5316;49.538;8.352;2022-09-03T19:27:33;19.00;99.90
10536;DHT22;5316;49.538;8.352;2022-09-03T19:30:23;19.00;99.90
10536;DHT22;5316;49.538;8.352;2022-09-03T19:33:14;19.00;99.90
10536;DHT22;5316;49.538;8.352;2022-09-03T19:36:07;18.90;99.90
10536;DHT22;5316;49.538;8.352;2022-09-03T19:39:05;18.80;99.90
10536;DHT22;5316;49.538;8.352;2022-09-03T19:41:58;18.80;99.90
10536;DHT22;5316;49.538;8.352;2022-09-03T19:45:25;18.70;99.90
10536;DHT22;5316;49.538;8.352;2022-09-03T19:48:35;18.70;99.90
10536;DHT22;5316;49.538;8.352;2022-09-03T19:51:31;18.60;99.90
10536;DHT22;5316;49.538;8.352;2022-09-03T19:54:43;18.60;99.90
10536;DHT22;5316;49.538;8.352;2022-09-03T19:57:34;18.50;99.90
10536;DHT22;5316;49.538;8.352;2022-09-03T20:00:35;18.50;99.90
10536;DHT22;5316;49.538;8.352;2022-09-03T20:03:41;18.50;99.90
10536;DHT22;5316;49.538;8.352;2022-09-03T20:06:41;18.40;99.90
10536;DHT22;5316;49.538;8.352;2022-09-03T20:09:56;18.40;99.90